Time;durP1;ratioP1;P1;durP2;ratioP2;P2;SDS_P1;SDS_P2;PMS_P1;PMS_P2;Temp;Humidity;BMP_temperature;BMP_pressure;BME280_temperature;BME280_humidity;BME280_pressure;Samples;Min_cycle;Max_cycle;Signal;HPM_P1;HPM_P2
2021/08/08 00:02:25;;;;;;;3.77;1.53;;;;;;;16.43;81.22;99643.70;124957;1092;64390;-78
2021/08/08 00:04:53;;;;;;;1.47;0.93;;;;;;;16.41;81.65;99647.67;124990;1093;64259;-79
2021/08/08 00:07:20;;;;;;;2.17;1.23;;;;;;;16.36;81.34;99645.69;124921;1093;64245;-78
2021/08/08 00:09:47;;;;;;;2.70;1.10;;;;;;;16.31;81.69;99637.58;124958;1093;64269;-82
2021/08/08 00:12:14;;;;;;;5.20;1.30;;;;;;;16.25;81.31;99633.98;124787;1093;64275;-77
2021/08/08 00:14:41;;;;;;;2.17;1.20;;;;;;;16.19;82.25;99640.28;124796;1093;64335;-79
2021/08/08 00:17:08;;;;;;;2.37;0.97;;;;;;;16.16;82.52;99643.45;125005;1093;64217;-78
2021/08/08 00:19:36;;;;;;;3.53;1.00;;;;;;;16.12;82.30;99642.29;124967;1093;64288;-78
2021/08/08 00:22:03;;;;;;;2.07;1.10;;;;;;;16.10;81.92;99647.87;124976;1093;64342;-77
2021/08/08 00:24:30;;;;;;;1.45;0.90;;;;;;;16.08;81.85;99657.19;124859;1093;64200;-77
2021/08/08 00:26:57;;;;;;;2.63;1.10;;;;;;;16.07;82.18;99658.25;124940;1092;64288;-80
2021/08/08 00:29:24;;;;;;;2.10;1.10;;;;;;;16.01;82.04;99656.52;124970;1093;64266;-83
2021/08/08 00:31:51;;;;;;;2.23;1.03;;;;;;;15.96;82.21;99651.88;124980;1093;64245;-79
2021/08/08 00:34:18;;;;;;;4.20;1.40;;;;;;;15.92;82.36;99663.26;124990;1093;64195;-78
2021/08/08 00:36:45;;;;;;;3.57;1.00;;;;;;;15.87;82.65;99664.81;124785;1092;64268;-77
2021/08/08 00:39:14;;;;;;;2.27;0.90;;;;;;;15.84;82.49;99659.91;124898;1092;64291;-78
2021/08/08 00:41:42;;;;;;;4.20;1.00;;;;;;;15.81;82.42;99659.56;125071;1093;64371;-79
2021/08/08 00:44:09;;;;;;;1.97;1.00;;;;;;;15.75;82.79;99664.00;125014;1093;64278;-78
2021/08/08 00:46:36;;;;;;;1.70;1.10;;;;;;;15.69;83.60;99663.03;125008;1093;64882;-78
2021/08/08 00:49:03;;;;;;;2.13;1.00;;;;;;;15.65;83.20;99664.55;124792;1093;64272;-79
2021/08/08 00:51:32;;;;;;;2.77;1.10;;;;;;;15.61;83.01;99671.41;124977;1093;64273;-78
2021/08/08 00:54:00;;;;;;;2.47;1.03;;;;;;;15.59;83.12;99678.03;124864;1093;64311;-78
2021/08/08 00:56:28;;;;;;;2.63;1.20;;;;;;;15.55;83.22;99675.00;125090;1093;64368;-80
2021/08/08 00:58:56;;;;;;;3.17;1.60;;;;;;;15.54;82.97;99670.72;125072;1092;64288;-77
2021/08/08 01:01:27;;;;;;;1.90;0.80;;;;;;;15.52;82.79;99667.47;124909;1093;64184;-79
2021/08/08 01:03:58;;;;;;;1.55;0.80;;;;;;;15.50;82.74;99669.55;124979;1093;64319;-79
2021/08/08 01:06:32;;;;;;;3.90;1.55;;;;;;;15.49;82.78;99678.60;125033;1093;64218;-79
2021/08/08 01:09:02;;;;;;;;;;;;;;;15.47;82.09;99670.84;125003;1093;64269;-77
2021/08/08 01:11:29;;;;;;;1.57;0.80;;;;;;;15.47;82.09;99681.53;125060;1093;64133;-78
2021/08/08 01:13:57;;;;;;;1.47;0.80;;;;;;;15.45;81.71;99680.95;124990;1093;64238;-79
2021/08/08 01:16:26;;;;;;;3.87;1.00;;;;;;;15.42;81.24;99678.72;124882;1093;64316;-81
2021/08/08 01:18:56;;;;;;;2.47;0.80;;;;;;;15.39;81.02;99678.39;125111;1093;64694;-78
2021/08/08 01:21:27;;;;;;;2.20;0.77;;;;;;;15.35;80.83;99688.72;125122;1092;64267;-77
2021/08/08 01:23:57;;;;;;;3.37;0.83;;;;;;;15.31;80.63;99687.55;126920;1093;64241;-77
2021/08/08 01:26:27;;;;;;;2.33;0.83;;;;;;;15.27;80.43;99686.38;124896;1092;64251;-78
2021/08/08 01:28:55;;;;;;;0.90;0.50;;;;;;;15.22;80.02;99688.95;124909;1092;64333;-75
2021/08/08 01:31:23;;;;;;;1.37;0.70;;;;;;;15.18;79.79;99693.92;125060;1093;64362;-77
2021/08/08 01:33:51;;;;;;;2.87;1.10;;;;;;;15.11;79.54;99701.23;124960;1093;64242;-78
2021/08/08 01:36:20;;;;;;;2.97;0.67;;;;;;;15.06;79.34;99707.23;124808;1093;64266;-79
2021/08/08 01:38:57;;;;;;;1.73;0.40;;;;;;;15.00;78.91;99702.00;124912;1093;64271;-77
2021/08/08 01:41:29;;;;;;;3.83;0.50;;;;;;;14.95;78.81;99700.02;124934;1093;64368;-78
2021/08/08 01:43:57;;;;;;;2.57;0.73;;;;;;;14.90;78.43;99699.91;125105;1093;64198;-77
2021/08/08 01:46:27;;;;;;;1.80;0.40;;;;;;;14.83;78.27;99702.67;125073;1093;64468;-76
2021/08/08 01:48:56;;;;;;;0.90;0.50;;;;;;;14.79;78.54;99705.99;125022;1092;64269;-77
2021/08/08 01:51:26;;;;;;;2.80;0.63;;;;;;;14.73;78.59;99698.89;124994;1093;64269;-81
2021/08/08 01:53:53;;;;;;;1.80;0.70;;;;;;;14.65;78.97;99703.52;124890;1093;64324;-74
2021/08/08 01:56:20;;;;;;;1.10;0.50;;;;;;;14.61;78.63;99710.34;124766;1092;64288;-78
2021/08/08 01:58:48;;;;;;;0.93;0.30;;;;;;;14.57;79.10;99709.16;124937;1093;64285;-78
2021/08/08 02:01:15;;;;;;;0.73;0.40;;;;;;;14.52;79.40;99710.86;124964;1093;64269;-80
2021/08/08 02:03:42;;;;;;;1.43;0.50;;;;;;;14.48;79.13;99715.83;124798;1093;64367;-77
2021/08/08 02:06:10;;;;;;;1.17;0.40;;;;;;;14.44;79.72;99714.64;124950;1092;64355;-78
2021/08/08 02:08:38;;;;;;;1.17;0.50;;;;;;;14.40;79.59;99708.94;124951;1093;64378;-78
2021/08/08 02:11:05;;;;;;;1.17;0.40;;;;;;;14.38;79.36;99707.53;124803;1093;64341;-79
2021/08/08 02:13:32;;;;;;;1.90;0.70;;;;;;;14.36;79.38;99713.09;124971;1092;64342;-79
2021/08/08 02:15:59;;;;;;;0.90;0.60;;;;;;;14.34;79.97;99717.83;124992;1093;64965;-81
2021/08/08 02:18:27;;;;;;;1.70;0.40;;;;;;;14.33;79.76;99723.41;124688;1093;64310;-78
2021/08/08 02:20:54;;;;;;;1.40;0.60;;;;;;;14.30;80.44;99726.51;124968;1093;64277;-78
2021/08/08 02:23:22;;;;;;;3.17;0.53;;;;;;;14.25;80.00;99722.66;124817;1093;64240;-79
2021/08/08 02:25:52;;;;;;;0.77;0.40;;;;;;;14.23;80.24;99723.92;124818;1093;64291;-75
2021/08/08 02:28:19;;;;;;;0.87;0.30;;;;;;;14.22;80.14;99728.45;124784;1092;64241;-77
2021/08/08 02:30:46;;;;;;;1.30;0.30;;;;;;;14.21;79.98;99728.66;124946;1093;65508;-77
2021/08/08 02:33:14;;;;;;;1.17;0.40;;;;;;;14.18;80.31;99735.26;124952;1093;64220;-80
2021/08/08 02:35:41;;;;;;;3.00;0.90;;;;;;;14.17;80.26;99736.28;124951;1093;64845;-79
2021/08/08 02:38:08;;;;;;;2.73;0.50;;;;;;;14.16;80.06;99733.86;124831;1093;64281;-78
2021/08/08 02:40:35;;;;;;;1.03;0.60;;;;;;;14.14;80.41;99733.27;124692;1093;64285;-79
2021/08/08 02:43:02;;;;;;;1.10;0.33;;;;;;;14.11;80.55;99736.36;124764;1093;64377;-79
2021/08/08 02:45:29;;;;;;;1.47;0.60;;;;;;;14.10;80.41;99743.55;124783;1093;64230;-78
2021/08/08 02:47:56;;;;;;;1.00;0.60;;;;;;;14.08;80.29;99737.63;125941;1093;64976;-77
2021/08/08 02:50:24;;;;;;;2.67;0.43;;;;;;;14.07;80.12;99746.67;124819;1093;64251;-78
2021/08/08 02:52:53;;;;;;;1.67;0.40;;;;;;;14.06;80.14;99745.03;124941;1093;64277;-76
2021/08/08 02:55:21;;;;;;;1.67;0.47;;;;;;;14.05;80.51;99759.41;124882;1093;64817;-76
2021/08/08 02:57:48;;;;;;;1.40;0.40;;;;;;;14.04;80.39;99757.77;124889;1093;64346;-78
2021/08/08 03:00:16;;;;;;;1.43;0.40;;;;;;;14.04;80.46;99768.43;124929;1093;64342;-83
2021/08/08 03:02:43;;;;;;;1.03;0.40;;;;;;;14.00;80.73;99762.71;124784;1093;64275;-77
2021/08/08 03:05:10;;;;;;;1.53;0.53;;;;;;;14.00;80.60;99767.23;124863;1093;64304;-81
2021/08/08 03:07:38;;;;;;;1.80;0.27;;;;;;;14.01;81.00;99775.03;124966;1093;64294;-77
2021/08/08 03:10:06;;;;;;;0.70;0.40;;;;;;;14.00;80.90;99777.91;124984;1093;65532;-79
2021/08/08 03:12:33;;;;;;;0.60;0.40;;;;;;;14.03;80.95;99777.48;124809;1093;64215;-77
2021/08/08 03:15:01;;;;;;;1.70;0.63;;;;;;;14.02;81.13;99781.17;124981;1092;64283;-78
2021/08/08 03:17:28;;;;;;;2.20;0.60;;;;;;;14.02;81.00;99789.16;124974;1093;64272;-80
2021/08/08 03:19:55;;;;;;;1.00;0.50;;;;;;;14.01;81.41;99787.55;124878;1093;64399;-79
2021/08/08 03:22:22;;;;;;;1.57;0.57;;;;;;;14.02;81.37;99787.30;124786;1093;64889;-78
2021/08/08 03:24:49;;;;;;;1.73;0.50;;;;;;;14.03;81.48;99785.48;124811;1093;64906;-78
2021/08/08 03:27:16;;;;;;;2.13;0.43;;;;;;;14.05;81.60;99788.75;124905;1092;64291;-79
2021/08/08 03:29:43;;;;;;;0.60;0.40;;;;;;;14.06;81.09;99779.70;124816;1093;64288;-79
2021/08/08 03:32:10;;;;;;;1.03;0.40;;;;;;;14.10;81.55;99780.08;124757;1092;64895;-79
2021/08/08 03:34:38;;;;;;;1.47;0.63;;;;;;;14.14;81.39;99787.41;124928;1093;64272;-79
2021/08/08 03:37:05;;;;;;;1.03;0.40;;;;;;;14.18;81.52;99785.94;124974;1093;64750;-78
2021/08/08 03:39:32;;;;;;;1.27;0.37;;;;;;;14.22;81.18;99789.80;124952;1093;64277;-78
2021/08/08 03:41:59;;;;;;;0.90;0.37;;;;;;;14.26;81.12;99793.66;124776;1093;64191;-79
2021/08/08 03:44:27;;;;;;;2.93;0.90;;;;;;;14.31;81.08;99794.84;124784;1093;64427;-81
2021/08/08 03:46:54;;;;;;;3.47;0.50;;;;;;;14.33;80.89;99798.11;124755;1092;64278;-77
2021/08/08 03:49:21;;;;;;;0.83;0.37;;;;;;;14.34;81.17;99799.73;124824;1093;64288;-80
2021/08/08 03:51:48;;;;;;;1.03;0.40;;;;;;;14.36;81.19;99797.66;124793;1093;64288;-79
2021/08/08 03:54:15;;;;;;;4.30;1.03;;;;;;;14.39;81.07;99807.90;124793;1093;64272;-80
2021/08/08 03:56:42;;;;;;;2.23;0.40;;;;;;;14.42;80.73;99800.24;124929;1093;64272;-80
2021/08/08 03:59:10;;;;;;;0.83;0.50;;;;;;;14.46;81.02;99808.63;126372;1093;64976;-77
2021/08/08 04:01:37;;;;;;;0.83;0.40;;;;;;;14.51;80.83;99802.63;125143;1093;64272;-79
2021/08/08 04:04:04;;;;;;;8.70;0.70;;;;;;;14.55;80.54;99812.66;124809;1093;64335;-79
2021/08/08 04:06:31;;;;;;;4.10;0.60;;;;;;;14.58;80.86;99808.75;124957;1093;64288;-83
2021/08/08 04:08:58;;;;;;;0.93;0.70;;;;;;;14.63;80.79;99815.03;124773;1093;64426;-78
2021/08/08 04:11:25;;;;;;;1.07;0.40;;;;;;;14.67;80.62;99816.22;124694;1093;64272;-78
2021/08/08 04:13:52;;;;;;;2.00;0.50;;;;;;;14.71;80.53;99821.94;124733;1092;64319;-78
2021/08/08 04:16:20;;;;;;;0.90;0.30;;;;;;;14.75;80.32;99822.28;124774;1093;64245;-79
2021/08/08 04:18:48;;;;;;;2.67;0.60;;;;;;;14.76;80.24;99823.93;125028;1093;64729;-79
2021/08/08 04:21:15;;;;;;;1.87;0.70;;;;;;;14.78;80.43;99828.00;124791;1093;64345;-81
2021/08/08 04:23:42;;;;;;;1.30;0.47;;;;;;;14.80;80.40;99828.59;124968;1093;64277;-81
2021/08/08 04:26:09;;;;;;;1.27;0.50;;;;;;;14.83;80.53;99836.17;125014;1093;64269;-79
2021/08/08 04:28:39;;;;;;;1.63;0.43;;;;;;;14.85;80.75;99836.77;124773;1093;64355;-77
2021/08/08 04:31:09;;;;;;;1.13;0.57;;;;;;;14.90;80.45;99841.43;124927;1093;64313;-80
2021/08/08 04:33:38;;;;;;;1.13;0.53;;;;;;;14.93;80.38;99840.97;124844;1093;64857;-79
2021/08/08 04:36:05;;;;;;;1.93;0.50;;;;;;;14.96;80.33;99840.53;125072;1093;64310;-79
2021/08/08 04:38:33;;;;;;;0.63;0.37;;;;;;;15.00;80.17;99836.38;124929;1093;64333;-78
2021/08/08 04:41:00;;;;;;;0.83;0.40;;;;;;;15.04;79.88;99842.88;124938;1093;64272;-81
2021/08/08 04:43:28;;;;;;;1.60;0.60;;;;;;;15.11;79.82;99839.30;125110;1093;64225;-79
2021/08/08 04:45:55;;;;;;;0.83;0.40;;;;;;;15.14;79.73;99846.88;124729;1093;64342;-81
2021/08/08 04:48:23;;;;;;;1.10;0.63;;;;;;;15.18;79.73;99848.06;124826;1093;64288;-79
2021/08/08 04:50:50;;;;;;;3.17;0.50;;;;;;;15.22;79.42;99841.23;124783;1093;64450;-78
2021/08/08 04:53:18;;;;;;;1.73;0.50;;;;;;;15.26;79.21;99839.73;124949;1092;64343;-78
2021/08/08 04:55:46;;;;;;;1.27;0.50;;;;;;;15.29;79.31;99844.61;124951;1093;64205;-83
2021/08/08 04:58:14;;;;;;;1.10;0.47;;;;;;;15.33;79.50;99842.31;124781;1093;64275;-79
2021/08/08 05:00:44;;;;;;;1.33;0.70;;;;;;;15.34;79.37;99847.41;124867;1092;64240;-79
2021/08/08 05:03:11;;;;;;;1.57;0.60;;;;;;;15.35;79.67;99848.25;124791;1093;64672;-78
2021/08/08 05:05:38;;;;;;;1.93;0.60;;;;;;;15.36;79.96;99849.86;124744;1093;64274;-80
2021/08/08 05:08:05;;;;;;;2.53;0.40;;;;;;;15.34;79.76;99847.41;124638;1092;64163;-78
2021/08/08 05:10:33;;;;;;;4.50;0.97;;;;;;;15.34;79.74;99842.06;124770;1093;64344;-79
2021/08/08 05:13:00;;;;;;;1.90;0.63;;;;;;;15.38;79.75;99837.09;125515;1093;64271;-76
2021/08/08 05:15:28;;;;;;;1.03;0.40;;;;;;;15.41;79.47;99853.49;126362;1093;64269;-77
2021/08/08 05:17:55;;;;;;;2.80;0.70;;;;;;;15.43;79.68;99847.93;125013;1093;64313;-79
2021/08/08 05:20:22;;;;;;;1.77;0.70;;;;;;;15.45;79.29;99846.66;124949;1093;64272;-78
2021/08/08 05:22:49;;;;;;;1.67;0.60;;;;;;;15.49;79.35;99845.16;124821;1093;64336;-77
2021/08/08 05:25:16;;;;;;;2.83;0.90;;;;;;;15.54;79.29;99847.14;124783;1093;64365;-78
2021/08/08 05:27:43;;;;;;;2.37;1.20;;;;;;;15.57;79.30;99844.00;124754;1093;64252;-78
2021/08/08 05:30:11;;;;;;;1.35;0.70;;;;;;;15.61;78.70;99847.04;124804;1093;64275;-80
2021/08/08 05:32:38;;;;;;;1.00;0.80;;;;;;;15.65;78.65;99858.91;124832;1092;64288;-78
2021/08/08 05:35:06;;;;;;;2.23;0.73;;;;;;;15.70;78.40;99856.34;124769;1092;64320;-79
2021/08/08 05:37:33;;;;;;;1.60;0.70;;;;;;;15.73;78.40;99860.48;124808;1092;64329;-78
2021/08/08 05:40:07;;;;;;;1.50;0.53;;;;;;;15.77;78.03;99861.63;124705;1093;64314;-79
2021/08/08 05:42:35;;;;;;;1.83;0.75;;;;;;;15.79;77.66;99865.72;124687;1093;64291;-78
2021/08/08 05:45:04;;;;;;;2.80;0.80;;;;;;;15.83;77.85;99866.89;124796;1093;64254;-77
2021/08/08 05:47:31;;;;;;;2.60;1.50;;;;;;;15.86;77.32;99870.96;124843;1093;64335;-79
2021/08/08 05:49:58;;;;;;;1.57;0.87;;;;;;;15.90;77.60;99867.59;124812;1093;64302;-78
2021/08/08 05:52:25;;;;;;;1.90;0.90;;;;;;;15.96;77.14;99868.55;124686;1093;64240;-77
2021/08/08 05:54:52;;;;;;;2.07;0.60;;;;;;;16.02;76.56;99866.78;124701;1093;64217;-81
2021/08/08 05:57:19;;;;;;;1.20;0.80;;;;;;;16.09;76.34;99870.19;124706;1092;64275;-78
2021/08/08 05:59:46;;;;;;;2.43;1.10;;;;;;;16.15;76.21;99887.16;124648;1092;64313;-80
2021/08/08 06:02:13;;;;;;;2.70;0.87;;;;;;;16.18;75.90;99879.48;124739;1092;64209;-79
2021/08/08 06:04:41;;;;;;;2.50;0.90;;;;;;;16.23;75.51;99886.81;124830;1093;64310;-81
2021/08/08 06:07:08;;;;;;;1.47;0.70;;;;;;;16.27;75.49;99888.79;124742;1093;64281;-81
2021/08/08 06:09:35;;;;;;;1.30;0.80;;;;;;;16.32;74.88;99890.80;124857;1093;64294;-78
2021/08/08 06:12:02;;;;;;;2.87;0.97;;;;;;;16.38;74.38;99894.38;124739;1093;64748;-79
2021/08/08 06:14:29;;;;;;;1.93;1.00;;;;;;;16.45;74.26;99898.59;124830;1093;64288;-82
2021/08/08 06:16:57;;;;;;;2.60;0.80;;;;;;;16.53;73.75;99900.08;124836;1092;64269;-78
2021/08/08 06:19:23;;;;;;;2.10;1.27;;;;;;;16.64;73.92;99903.80;124755;1092;64303;-80
2021/08/08 06:21:51;;;;;;;2.87;1.00;;;;;;;16.68;73.25;99904.95;124800;1093;64198;-79
2021/08/08 06:24:18;;;;;;;1.80;0.73;;;;;;;16.74;72.97;99900.53;124824;1093;64345;-81
2021/08/08 06:26:45;;;;;;;2.90;1.50;;;;;;;16.77;72.16;99908.92;124782;1093;64264;-82
2021/08/08 06:29:12;;;;;;;3.47;1.80;;;;;;;16.80;72.55;99915.67;124787;1093;64336;-77
2021/08/08 06:31:39;;;;;;;4.93;1.50;;;;;;;16.83;71.60;99909.86;124828;1093;64266;-78
2021/08/08 06:34:06;;;;;;;1.90;1.10;;;;;;;16.89;71.42;99914.28;124773;1093;64275;-80
2021/08/08 06:36:33;;;;;;;2.00;0.90;;;;;;;16.98;71.22;99917.41;124807;1093;64332;-79
2021/08/08 06:39:04;;;;;;;2.20;1.10;;;;;;;17.06;71.01;99914.36;124833;1093;64290;-79
2021/08/08 06:41:32;;;;;;;1.90;1.10;;;;;;;17.12;70.84;99942.89;124889;1093;64336;-78
2021/08/08 06:44:00;;;;;;;2.03;1.00;;;;;;;17.16;70.37;99927.17;124756;1093;64275;-77
2021/08/08 06:46:27;;;;;;;3.20;1.00;;;;;;;17.21;70.19;99929.94;124794;1093;64227;-78
2021/08/08 06:48:54;;;;;;;3.63;1.33;;;;;;;17.30;69.96;99923.17;124700;1093;64281;-80
2021/08/08 06:51:21;;;;;;;2.97;1.07;;;;;;;17.41;69.62;99935.72;124845;1091;64269;-81
2021/08/08 06:53:48;;;;;;;2.73;0.93;;;;;;;17.49;68.89;99938.02;124764;1093;64329;-79
2021/08/08 06:56:15;;;;;;;3.80;0.90;;;;;;;17.59;68.56;99944.63;124807;1093;64265;-80
2021/08/08 06:58:42;;;;;;;2.70;1.10;;;;;;;17.65;67.49;99949.03;124756;1093;64275;-78
2021/08/08 07:01:09;;;;;;;2.37;0.93;;;;;;;17.76;67.04;99937.42;125287;1092;64275;-76
2021/08/08 07:03:36;;;;;;;3.27;1.30;;;;;;;17.87;66.62;99944.65;126465;1093;64198;-79
2021/08/08 07:06:04;;;;;;;3.70;1.20;;;;;;;17.99;66.13;99957.98;124747;1092;64291;-81
2021/08/08 07:08:31;;;;;;;3.73;1.47;;;;;;;18.10;64.92;99949.05;124762;1093;64288;-78
2021/08/08 07:10:58;;;;;;;2.50;1.23;;;;;;;18.20;64.30;99940.36;124780;1093;64390;-80
2021/08/08 07:13:25;;;;;;;3.10;1.10;;;;;;;18.30;63.78;99948.58;124795;1093;64291;-79
2021/08/08 07:15:52;;;;;;;4.77;1.33;;;;;;;18.52;63.21;99953.20;124815;1093;64300;-82
2021/08/08 07:18:19;;;;;;;2.57;1.30;;;;;;;18.78;63.26;99948.20;124782;1093;64310;-78
2021/08/08 07:20:46;;;;;;;5.07;1.33;;;;;;;19.04;61.13;99952.07;124830;1093;64285;-79
2021/08/08 07:23:13;;;;;;;3.57;1.00;;;;;;;19.18;59.38;99952.53;124757;1093;64338;-79
2021/08/08 07:25:40;;;;;;;3.90;1.20;;;;;;;19.20;59.26;99961.16;124960;1093;64332;-79
2021/08/08 07:28:08;;;;;;;2.47;1.23;;;;;;;19.26;58.59;99960.97;124980;1091;64236;-79
2021/08/08 07:30:36;;;;;;;3.63;1.73;;;;;;;19.37;58.99;99948.45;125013;1093;64365;-79
2021/08/08 07:33:03;;;;;;;4.67;1.40;;;;;;;19.52;58.06;99943.23;124818;1093;64211;-79
2021/08/08 07:35:30;;;;;;;3.05;1.40;;;;;;;19.71;57.52;99951.81;124799;1093;64361;-81
2021/08/08 07:37:59;;;;;;;3.75;1.20;;;;;;;19.76;56.22;99961.81;124910;1093;64725;-78
2021/08/08 07:40:26;;;;;;;4.80;1.40;;;;;;;19.67;56.01;99971.38;124909;1093;64337;-77
2021/08/08 07:42:56;;;;;;;5.83;2.30;;;;;;;19.50;55.38;99966.89;124810;1093;65351;-80
2021/08/08 07:45:23;;;;;;;2.50;1.37;;;;;;;19.44;56.49;99967.89;124911;1093;64306;-79
2021/08/08 07:47:50;;;;;;;5.50;1.50;;;;;;;19.33;56.40;99998.42;124838;1093;64291;-77
2021/08/08 07:50:17;;;;;;;9.33;1.50;;;;;;;19.28;56.60;99990.31;124943;1093;64301;-78
2021/08/08 07:52:46;;;;;;;3.27;1.00;;;;;;;19.18;56.55;99990.98;124893;1092;64275;-79
2021/08/08 07:55:13;;;;;;;4.30;1.30;;;;;;;19.14;56.90;99981.78;124946;1093;64272;-79
2021/08/08 07:57:40;;;;;;;3.90;1.40;;;;;;;19.10;57.16;100026.34;125011;1093;64272;-78
2021/08/08 08:00:08;;;;;;;3.20;1.67;;;;;;;19.03;57.92;100001.53;124988;1093;64269;-77
2021/08/08 08:02:35;;;;;;;4.77;1.40;;;;;;;19.00;57.52;100005.53;124917;1093;64268;-79
2021/08/08 08:05:03;;;;;;;5.83;1.43;;;;;;;19.09;58.11;100020.17;124784;1093;64367;-75
2021/08/08 08:07:31;;;;;;;2.17;1.30;;;;;;;19.12;56.70;100018.85;124873;1093;64304;-79
2021/08/08 08:09:58;;;;;;;4.70;1.60;;;;;;;19.15;57.31;100024.55;124986;1093;64323;-82
2021/08/08 08:12:26;;;;;;;7.07;2.30;;;;;;;19.16;57.29;100028.05;124988;1093;64368;-81
2021/08/08 08:14:53;;;;;;;5.00;1.80;;;;;;;19.11;56.85;100034.17;124975;1093;64268;-81
2021/08/08 08:17:20;;;;;;;3.25;1.45;;;;;;;19.01;56.55;100031.34;125093;1092;64272;-79
2021/08/08 08:19:47;;;;;;;6.93;1.90;;;;;;;18.94;56.72;100082.58;124791;1092;64981;-79
2021/08/08 08:22:17;;;;;;;4.27;1.60;;;;;;;18.91;57.41;100036.56;124930;1093;64693;-77
2021/08/08 08:24:44;;;;;;;4.67;1.60;;;;;;;18.82;56.93;100062.23;124943;1093;64288;-77
2021/08/08 08:27:12;;;;;;;3.80;1.00;;;;;;;18.82;57.28;100051.48;124768;1092;64416;-79
2021/08/08 08:29:39;;;;;;;7.60;1.70;;;;;;;18.84;57.06;100060.11;124819;1093;64272;-78
2021/08/08 08:32:07;;;;;;;4.40;1.23;;;;;;;18.88;57.02;100067.44;124809;1093;64269;-77
2021/08/08 08:34:35;;;;;;;3.30;1.40;;;;;;;18.84;57.08;100065.48;124900;1093;64191;-78
2021/08/08 08:37:02;;;;;;;6.97;1.80;;;;;;;18.80;57.22;100073.21;124820;1093;64329;-78
2021/08/08 08:39:30;;;;;;;5.47;1.60;;;;;;;18.75;57.53;100073.92;124808;1093;64336;-78
2021/08/08 08:42:01;;;;;;;5.60;1.37;;;;;;;18.77;57.57;100065.63;124982;1093;64271;-79
2021/08/08 08:44:29;;;;;;;4.00;1.67;;;;;;;18.86;57.04;100064.17;124913;1093;64252;-78
2021/08/08 08:46:58;;;;;;;5.17;2.00;;;;;;;18.95;56.10;100086.88;125142;1092;64294;-79
2021/08/08 08:49:27;;;;;;;3.97;1.27;;;;;;;19.08;56.77;100068.80;125061;1093;64198;-79
2021/08/08 08:52:01;;;;;;;5.43;1.43;;;;;;;19.21;54.88;100073.02;124702;1093;64221;-77
2021/08/08 08:54:29;;;;;;;6.48;1.68;;;;;;;19.25;55.46;100071.45;124987;1093;64288;-80
2021/08/08 08:56:59;;;;;;;4.23;1.40;;;;;;;19.24;53.77;100102.92;125059;1093;64291;-80
2021/08/08 08:59:27;;;;;;;3.47;1.43;;;;;;;19.28;54.73;100065.60;124965;1093;64188;-79
2021/08/08 09:01:54;;;;;;;6.83;1.53;;;;;;;19.43;54.43;100070.38;124908;1092;64291;-79
2021/08/08 09:04:22;;;;;;;3.35;1.70;;;;;;;19.63;53.71;100085.95;124921;1093;64320;-79
2021/08/08 09:06:49;;;;;;;4.25;1.80;;;;;;;19.75;53.47;100102.83;124842;1093;64329;-79
2021/08/08 09:09:16;;;;;;;5.43;1.60;;;;;;;19.67;53.01;100090.58;124837;1093;64291;-78
2021/08/08 09:11:47;;;;;;;3.70;1.23;;;;;;;19.75;53.85;100084.80;124800;1092;64288;-77
2021/08/08 09:14:15;;;;;;;3.90;1.20;;;;;;;19.84;53.95;100109.39;124996;1093;64291;-79
2021/08/08 09:16:45;;;;;;;4.33;1.90;;;;;;;19.85;53.42;100092.19;125042;1093;64323;-78
2021/08/08 09:19:21;;;;;;;5.60;2.00;;;;;;;19.87;51.93;100092.76;124943;1093;64275;-79
2021/08/08 09:21:50;;;;;;;4.83;2.27;;;;;;;20.04;52.34;100116.08;125039;1093;64200;-77
2021/08/08 09:24:31;;;;;;;4.00;1.33;;;;;;;20.02;52.38;100118.20;125022;1093;64299;-78
2021/08/08 09:27:14;;;;;;;7.13;1.70;;;;;;;19.95;51.74;100102.25;125153;1093;64236;-77
2021/08/08 09:29:43;;;;;;;3.57;1.60;;;;;;;19.88;51.34;100123.98;124874;1093;64271;-79
2021/08/08 09:32:12;;;;;;;5.30;2.40;;;;;;;19.86;52.14;100126.11;125024;1093;64307;-80
2021/08/08 09:34:45;;;;;;;3.95;1.60;;;;;;;19.84;52.16;100117.47;124818;1093;64604;-78
2021/08/08 09:37:16;;;;;;;4.93;1.40;;;;;;;19.77;52.07;100130.31;125003;1093;64214;-79
2021/08/08 09:39:49;;;;;;;2.97;1.17;;;;;;;19.76;52.98;100131.36;124981;1093;64223;-79
2021/08/08 09:42:21;;;;;;;4.60;1.63;;;;;;;19.78;52.62;100121.16;124889;1093;64326;-82
2021/08/08 09:45:01;;;;;;;3.77;1.00;;;;;;;19.75;52.78;100129.74;124965;1093;65491;-78
2021/08/08 09:47:43;;;;;;;6.03;1.40;;;;;;;19.71;52.26;100131.30;124708;1092;64282;-78
2021/08/08 09:50:16;;;;;;;6.67;1.40;;;;;;;19.78;52.97;100134.61;125185;1093;64291;-80
2021/08/08 09:52:54;;;;;;;4.87;1.30;;;;;;;19.75;52.56;100145.89;124797;1093;64266;-78
2021/08/08 09:55:24;;;;;;;3.63;1.87;;;;;;;19.81;53.56;100131.44;124990;1093;64269;-77
2021/08/08 09:57:52;;;;;;;4.37;1.20;;;;;;;19.78;52.91;100139.19;124803;1093;64365;-80
2021/08/08 10:00:26;;;;;;;4.57;1.50;;;;;;;19.78;52.69;100148.06;125040;1093;64240;-79
2021/08/08 10:02:55;;;;;;;2.93;1.27;;;;;;;19.84;53.68;100138.19;124814;1093;64812;-79
2021/08/08 10:05:26;;;;;;;2.97;1.10;;;;;;;19.87;52.31;100154.66;124992;1093;64269;-81
2021/08/08 10:07:54;;;;;;;3.50;1.10;;;;;;;19.85;51.81;100170.25;124943;1093;64318;-77
2021/08/08 10:10:24;;;;;;;2.97;1.20;;;;;;;19.88;52.39;100153.59;125006;1093;64300;-79
2021/08/08 10:12:53;;;;;;;3.30;1.27;;;;;;;20.00;52.71;100171.48;124934;1093;64895;-80
2021/08/08 10:15:21;;;;;;;5.10;1.20;;;;;;;20.10;51.97;100158.16;125231;1093;64410;-79
2021/08/08 10:17:50;;;;;;;3.73;1.33;;;;;;;20.25;51.79;100171.83;124962;1093;64195;-78
2021/08/08 10:20:18;;;;;;;3.50;1.20;;;;;;;20.26;52.04;100157.27;124846;1093;64362;-77
2021/08/08 10:22:49;;;;;;;5.97;1.87;;;;;;;20.32;52.08;100167.05;125123;1093;64285;-79
2021/08/08 10:25:18;;;;;;;3.60;1.60;;;;;;;20.23;52.12;100173.95;125044;1093;64268;-79
2021/08/08 10:27:46;;;;;;;3.17;1.50;;;;;;;20.20;52.54;100173.63;124890;1093;64272;-78
2021/08/08 10:30:13;;;;;;;5.40;1.67;;;;;;;20.25;52.33;100165.59;124867;1093;64274;-85
2021/08/08 10:32:41;;;;;;;3.70;1.20;;;;;;;20.22;52.48;100176.89;124978;1093;64268;-77
2021/08/08 10:35:13;;;;;;;5.60;1.20;;;;;;;20.23;52.83;100173.95;124940;1092;64419;-78
2021/08/08 10:37:41;;;;;;;3.07;1.20;;;;;;;20.24;52.49;100182.84;124870;1093;64327;-80
2021/08/08 10:40:10;;;;;;;3.53;1.20;;;;;;;20.29;52.46;100162.14;124800;1093;64245;-75
2021/08/08 10:42:47;;;;;;;2.70;1.30;;;;;;;20.34;51.93;100159.52;125080;1092;64295;-77
2021/08/08 10:45:30;;;;;;;6.47;1.50;;;;;;;20.29;51.84;100167.53;124969;1093;64362;-79
2021/08/08 10:48:02;;;;;;;3.65;1.15;;;;;;;20.31;52.56;100160.02;125040;1093;64207;-80
2021/08/08 10:50:43;;;;;;;4.70;1.30;;;;;;;20.32;52.87;100167.05;124805;1093;64224;-78
2021/08/08 10:53:24;;;;;;;5.60;1.40;;;;;;;20.30;53.01;100158.41;124990;1093;64200;-79
2021/08/08 10:56:09;;;;;;;4.20;1.20;;;;;;;20.48;52.73;100159.13;124965;1093;64382;-78
2021/08/08 10:58:41;;;;;;;4.67;1.33;;;;;;;20.62;52.47;100156.88;124726;1093;64734;-82
2021/08/08 11:01:19;;;;;;;2.57;0.87;;;;;;;20.71;52.19;100153.45;125046;1093;64355;-80
2021/08/08 11:03:54;;;;;;;3.13;1.20;;;;;;;20.83;51.16;100171.36;124820;1093;64293;-77
2021/08/08 11:06:24;;;;;;;4.50;1.38;;;;;;;20.97;50.12;100170.69;125000;1093;64349;-79
2021/08/08 11:08:53;;;;;;;6.43;1.33;;;;;;;21.16;49.44;100171.08;125076;1093;64205;-77
2021/08/08 11:11:32;;;;;;;7.23;1.53;;;;;;;21.31;49.65;100167.69;124944;1093;64291;-79
2021/08/08 11:14:16;;;;;;;5.00;1.17;;;;;;;21.14;48.26;100186.70;124761;1092;64380;-82
2021/08/08 11:16:44;;;;;;;;;;;;;;;20.75;49.26;100194.20;125011;1093;64268;-78
2021/08/08 11:19:12;;;;;;;4.53;1.83;;;;;;;20.47;50.03;100184.45;124830;1093;64375;-78
2021/08/08 11:21:40;;;;;;;4.87;1.33;;;;;;;20.24;50.84;100186.34;124979;1092;64272;-80
2021/08/08 11:24:11;;;;;;;5.65;1.60;;;;;;;20.12;50.86;100207.19;124967;1093;64419;-79
2021/08/08 11:26:39;;;;;;;5.73;1.10;;;;;;;20.00;51.72;100203.80;124830;1093;64285;-77
2021/08/08 11:29:07;;;;;;;2.57;1.17;;;;;;;19.98;52.44;100208.61;124988;1093;64288;-82
2021/08/08 11:31:36;;;;;;;6.83;1.10;;;;;;;19.96;51.60;100196.23;124810;1093;64281;-79